sensor_id;sensor_type;location;lat;lon;timestamp;pressure;altitude;pressure_sealevel;temperature;humidity
69035;BME280;56091;55.756;37.412;2022-11-03T00:01:19;98952.72;;;-0.06;70.11
69035;BME280;56091;55.756;37.412;2022-11-03T00:06:20;98937.34;;;0.11;70.16
69035;BME280;56091;55.756;37.412;2022-11-03T00:11:20;98949.16;;;0.08;69.85
69035;BME280;56091;55.756;37.412;2022-11-03T00:16:21;98948.03;;;0.24;69.65
69035;BME280;56091;55.756;37.412;2022-11-03T00:21:22;98946.22;;;0.31;68.67
69035;BME280;56091;55.756;37.412;2022-11-03T00:26:27;98951.34;;;0.33;68.71
69035;BME280;56091;55.756;37.412;2022-11-03T00:31:30;98945.53;;;0.16;69.71
69035;BME280;56091;55.756;37.412;2022-11-03T00:36:34;98945.78;;;0.21;69.27
69035;BME280;56091;55.756;37.412;2022-11-03T00:41:35;98952.94;;;-0.36;70.95
69035;BME280;56091;55.756;37.412;2022-11-03T00:46:37;98956.69;;;-0.73;72.46
69035;BME280;56091;55.756;37.412;2022-11-03T00:51:37;98959.34;;;-0.73;72.86
69035;BME280;56091;55.756;37.412;2022-11-03T00:56:39;98963.38;;;-0.77;73.19
69035;BME280;56091;55.756;37.412;2022-11-03T01:01:42;98964.38;;;-0.57;72.88
69035;BME280;56091;55.756;37.412;2022-11-03T01:06:46;98966.09;;;-0.49;72.17
69035;BME280;56091;55.756;37.412;2022-11-03T01:17:09;98966.19;;;-0.36;71.71
69035;BME280;56091;55.756;37.412;2022-11-03T01:22:10;98981.78;;;0.02;70.38
69035;BME280;56091;55.756;37.412;2022-11-03T01:27:13;98978.97;;;0.10;69.57
69035;BME280;56091;55.756;37.412;2022-11-03T01:32:15;98989.72;;;-0.26;70.27
69035;BME280;56091;55.756;37.412;2022-11-03T01:37:15;98992.97;;;-0.52;71.34
69035;BME280;56091;55.756;37.412;2022-11-03T01:42:16;99000.53;;;-0.71;72.26
69035;BME280;56091;55.756;37.412;2022-11-03T01:47:41;98997.00;;;-0.56;72.13
69035;BME280;56091;55.756;37.412;2022-11-03T01:52:50;98985.28;;;-0.47;71.50
69035;BME280;56091;55.756;37.412;2022-11-03T01:58:02;98998.53;;;-0.47;71.35
69035;BME280;56091;55.756;37.412;2022-11-03T02:03:05;98980.25;;;-0.57;71.83
69035;BME280;56091;55.756;37.412;2022-11-03T02:13:20;98970.31;;;-0.55;71.87
69035;BME280;56091;55.756;37.412;2022-11-03T02:18:42;98975.84;;;-0.50;72.00
69035;BME280;56091;55.756;37.412;2022-11-03T02:24:17;98984.94;;;-0.37;71.67
69035;BME280;56091;55.756;37.412;2022-11-03T02:29:22;98970.72;;;-0.51;72.12
69035;BME280;56091;55.756;37.412;2022-11-03T02:34:37;98958.09;;;-0.77;72.69
69035;BME280;56091;55.756;37.412;2022-11-03T02:39:44;98989.94;;;-0.71;72.61
69035;BME280;56091;55.756;37.412;2022-11-03T02:44:47;98975.34;;;-1.03;73.71
69035;BME280;56091;55.756;37.412;2022-11-03T02:49:52;98980.81;;;-1.05;73.54
69035;BME280;56091;55.756;37.412;2022-11-03T02:54:56;98978.28;;;-1.13;74.37
69035;BME280;56091;55.756;37.412;2022-11-03T03:00:05;98982.41;;;-1.25;74.56
69035;BME280;56091;55.756;37.412;2022-11-03T03:05:10;98978.13;;;-0.90;73.72
69035;BME280;56091;55.756;37.412;2022-11-03T03:10:17;98981.97;;;-0.92;73.65
69035;BME280;56091;55.756;37.412;2022-11-03T03:15:24;98983.56;;;-0.55;72.56
69035;BME280;56091;55.756;37.412;2022-11-03T03:20:33;98978.50;;;-0.28;71.94
69035;BME280;56091;55.756;37.412;2022-11-03T03:31:00;98982.19;;;-1.09;73.07
69035;BME280;56091;55.756;37.412;2022-11-03T03:36:09;98976.75;;;-1.22;73.64
69035;BME280;56091;55.756;37.412;2022-11-03T03:41:14;98973.94;;;-1.21;73.34
69035;BME280;56091;55.756;37.412;2022-11-03T03:46:23;98964.00;;;-1.48;74.37
69035;BME280;56091;55.756;37.412;2022-11-03T03:51:29;98962.38;;;-1.34;73.74
69035;BME280;56091;55.756;37.412;2022-11-03T03:56:35;98988.03;;;-0.99;73.19
69035;BME280;56091;55.756;37.412;2022-11-03T04:01:37;98981.28;;;-0.80;71.93
69035;BME280;56091;55.756;37.412;2022-11-03T04:06:38;98991.00;;;-0.65;71.50
69035;BME280;56091;55.756;37.412;2022-11-03T04:11:38;98995.97;;;-0.55;71.11
69035;BME280;56091;55.756;37.412;2022-11-03T04:17:19;98991.16;;;-1.10;72.42
69035;BME280;56091;55.756;37.412;2022-11-03T04:22:38;98994.59;;;-1.46;74.13
69035;BME280;56091;55.756;37.412;2022-11-03T04:27:39;99005.00;;;-1.74;75.02
69035;BME280;56091;55.756;37.412;2022-11-03T04:32:41;98994.22;;;-1.43;74.09
69035;BME280;56091;55.756;37.412;2022-11-03T04:43:18;99002.34;;;-1.59;74.07
69035;BME280;56091;55.756;37.412;2022-11-03T04:48:23;99007.44;;;-1.43;73.91
69035;BME280;56091;55.756;37.412;2022-11-03T04:53:28;99005.44;;;-1.41;73.78
69035;BME280;56091;55.756;37.412;2022-11-03T04:58:34;99003.16;;;-1.44;73.77
69035;BME280;56091;55.756;37.412;2022-11-03T05:03:36;99001.25;;;-1.50;73.99
69035;BME280;56091;55.756;37.412;2022-11-03T05:08:37;99000.69;;;-1.60;74.71
69035;BME280;56091;55.756;37.412;2022-11-03T05:13:38;98996.59;;;-1.48;74.44
69035;BME280;56091;55.756;37.412;2022-11-03T05:18:42;99004.88;;;-1.21;73.13
69035;BME280;56091;55.756;37.412;2022-11-03T05:24:04;99005.97;;;-1.15;73.41
69035;BME280;56091;55.756;37.412;2022-11-03T05:29:11;99017.09;;;-0.84;74.55
69035;BME280;56091;55.756;37.412;2022-11-03T05:39:47;99012.25;;;-0.80;71.16
69035;BME280;56091;55.756;37.412;2022-11-03T05:44:51;99020.03;;;-0.93;71.67
69035;BME280;56091;55.756;37.412;2022-11-03T05:49:58;99030.47;;;-0.70;71.34
69035;BME280;56091;55.756;37.412;2022-11-03T05:55:01;99015.47;;;-0.85;71.12
69035;BME280;56091;55.756;37.412;2022-11-03T06:00:06;99024.63;;;-0.66;70.67
69035;BME280;56091;55.756;37.412;2022-11-03T06:05:17;99014.53;;;-0.55;69.89
69035;BME280;56091;55.756;37.412;2022-11-03T06:10:35;99036.69;;;-0.42;69.55
69035;BME280;56091;55.756;37.412;2022-11-03T06:15:41;99022.59;;;-0.42;68.94
69035;BME280;56091;55.756;37.412;2022-11-03T06:20:52;99033.19;;;-0.42;68.98
69035;BME280;56091;55.756;37.412;2022-11-03T06:25:55;99034.41;;;-0.23;68.63
69035;BME280;56091;55.756;37.412;2022-11-03T06:30:56;99029.31;;;-0.25;68.37
69035;BME280;56091;55.756;37.412;2022-11-03T06:36:00;99044.47;;;-0.12;68.09
69035;BME280;56091;55.756;37.412;2022-11-03T06:41:02;99038.09;;;0.04;67.62
69035;BME280;56091;55.756;37.412;2022-11-03T06:46:12;99050.97;;;0.07;67.24
69035;BME280;56091;55.756;37.412;2022-11-03T06:51:17;99046.50;;;0.08;67.17
69035;BME280;56091;55.756;37.412;2022-11-03T06:56:20;99051.06;;;0.21;67.11
69035;BME280;56091;55.756;37.412;2022-11-03T07:01:24;98990.53;;;-0.26;66.66
69035;BME280;56091;55.756;37.412;2022-11-03T07:06:31;99055.25;;;-0.42;68.45
69035;BME280;56091;55.756;37.412;2022-11-03T07:11:40;99057.91;;;-0.78;69.98
69035;BME280;56091;55.756;37.412;2022-11-03T07:16:46;99049.28;;;-1.02;71.09
69035;BME280;56091;55.756;37.412;2022-11-03T07:21:49;99038.97;;;-0.96;70.32
69035;BME280;56091;55.756;37.412;2022-11-03T07:26:58;99046.63;;;-0.87;69.87
69035;BME280;56091;55.756;37.412;2022-11-03T07:31:59;99046.72;;;-0.95;70.88
69035;BME280;56091;55.756;37.412;2022-11-03T07:37:00;99059.56;;;-0.77;70.08
69035;BME280;56091;55.756;37.412;2022-11-03T07:42:09;99073.22;;;-1.10;70.91
69035;BME280;56091;55.756;37.412;2022-11-03T07:47:17;99065.28;;;-1.10;71.13
69035;BME280;56091;55.756;37.412;2022-11-03T07:52:20;99064.03;;;-1.29;72.00
69035;BME280;56091;55.756;37.412;2022-11-03T07:57:29;99068.84;;;-1.47;72.57
69035;BME280;56091;55.756;37.412;2022-11-03T08:07:36;99057.59;;;-1.05;70.91
69035;BME280;56091;55.756;37.412;2022-11-03T08:12:37;99063.09;;;-0.70;69.45
69035;BME280;56091;55.756;37.412;2022-11-03T08:17:39;99070.22;;;-0.34;68.48
69035;BME280;56091;55.756;37.412;2022-11-03T08:22:39;99059.66;;;-0.06;67.41
69035;BME280;56091;55.756;37.412;2022-11-03T08:27:40;99057.47;;;0.05;66.75
69035;BME280;56091;55.756;37.412;2022-11-03T08:32:42;99053.34;;;0.24;66.27
69035;BME280;56091;55.756;37.412;2022-11-03T08:37:44;99046.19;;;0.24;66.27
69035;BME280;56091;55.756;37.412;2022-11-03T08:42:46;99049.72;;;0.31;65.94
69035;BME280;56091;55.756;37.412;2022-11-03T08:47:47;99049.66;;;-0.25;67.78
69035;BME280;56091;55.756;37.412;2022-11-03T08:52:48;99047.22;;;-0.48;68.93
69035;BME280;56091;55.756;37.412;2022-11-03T08:57:49;99041.03;;;-0.12;68.42
69035;BME280;56091;55.756;37.412;2022-11-03T09:02:50;99050.84;;;0.15;67.22
69035;BME280;56091;55.756;37.412;2022-11-03T09:07:51;99044.16;;;-0.02;66.46
69035;BME280;56091;55.756;37.412;2022-11-03T09:12:53;99043.31;;;-0.09;67.27
69035;BME280;56091;55.756;37.412;2022-11-03T09:17:54;99042.47;;;-0.10;67.59
69035;BME280;56091;55.756;37.412;2022-11-03T09:22:55;99035.72;;;-0.12;67.40
69035;BME280;56091;55.756;37.412;2022-11-03T09:27:58;99048.63;;;0.19;66.53
69035;BME280;56091;55.756;37.412;2022-11-03T09:32:58;99055.75;;;0.18;66.96
69035;BME280;56091;55.756;37.412;2022-11-03T09:37:59;99054.06;;;0.39;65.91
69035;BME280;56091;55.756;37.412;2022-11-03T09:43:00;99046.38;;;-0.27;67.87
69035;BME280;56091;55.756;37.412;2022-11-03T09:48:01;99049.38;;;-0.58;69.67
69035;BME280;56091;55.756;37.412;2022-11-03T09:53:04;99039.41;;;-0.56;69.57
69035;BME280;56091;55.756;37.412;2022-11-03T09:58:24;99040.38;;;-0.79;69.60
69035;BME280;56091;55.756;37.412;2022-11-03T10:03:25;99054.22;;;-0.62;69.50
69035;BME280;56091;55.756;37.412;2022-11-03T10:08:28;99049.50;;;-0.24;68.26
69035;BME280;56091;55.756;37.412;2022-11-03T10:13:34;99050.81;;;-0.34;67.64
69035;BME280;56091;55.756;37.412;2022-11-03T10:18:37;99049.31;;;-0.44;68.15
69035;BME280;56091;55.756;37.412;2022-11-03T10:23:40;99045.34;;;-0.54;68.61
69035;BME280;56091;55.756;37.412;2022-11-03T10:29:02;99042.28;;;-0.51;69.05
69035;BME280;56091;55.756;37.412;2022-11-03T10:34:05;99036.03;;;-0.65;69.25
69035;BME280;56091;55.756;37.412;2022-11-03T10:39:29;99042.81;;;-0.41;68.86
69035;BME280;56091;55.756;37.412;2022-11-03T10:44:32;99041.16;;;-0.42;68.82
69035;BME280;56091;55.756;37.412;2022-11-03T10:49:34;99029.69;;;-0.49;69.13
69035;BME280;56091;55.756;37.412;2022-11-03T10:54:39;99031.00;;;-0.38;69.13
69035;BME280;56091;55.756;37.412;2022-11-03T10:59:40;99025.22;;;-0.49;68.89
69035;BME280;56091;55.756;37.412;2022-11-03T11:04:42;99031.28;;;-0.55;69.43
69035;BME280;56091;55.756;37.412;2022-11-03T11:09:42;99033.13;;;-0.27;68.69
69035;BME280;56091;55.756;37.412;2022-11-03T11:14:54;99038.50;;;-0.21;67.87
69035;BME280;56091;55.756;37.412;2022-11-03T11:25:19;99034.22;;;-0.22;68.13
69035;BME280;56091;55.756;37.412;2022-11-03T11:51:08;99015.84;;;-0.45;69.60
69035;BME280;56091;55.756;37.412;2022-11-03T11:56:12;99036.81;;;-0.28;69.41
69035;BME280;56091;55.756;37.412;2022-11-03T12:01:30;99038.13;;;-0.17;69.42
69035;BME280;56091;55.756;37.412;2022-11-03T12:06:39;99022.09;;;-0.09;68.86
69035;BME280;56091;55.756;37.412;2022-11-03T12:11:48;99031.66;;;0.13;68.56
69035;BME280;56091;55.756;37.412;2022-11-03T12:16:49;99035.56;;;-0.04;68.68
69035;BME280;56091;55.756;37.412;2022-11-03T12:21:51;99039.00;;;-0.10;69.45
69035;BME280;56091;55.756;37.412;2022-11-03T12:26:53;99040.44;;;0.21;68.96
69035;BME280;56091;55.756;37.412;2022-11-03T12:31:54;99036.34;;;-0.10;69.26
69035;BME280;56091;55.756;37.412;2022-11-03T12:36:58;99024.59;;;-0.01;68.95
69035;BME280;56091;55.756;37.412;2022-11-03T12:41:58;99042.78;;;-0.20;69.79
69035;BME280;56091;55.756;37.412;2022-11-03T12:46:59;99044.19;;;-0.24;70.31
69035;BME280;56091;55.756;37.412;2022-11-03T12:52:03;99040.22;;;-0.56;71.14
69035;BME280;56091;55.756;37.412;2022-11-03T12:57:06;99035.41;;;-0.46;71.35
69035;BME280;56091;55.756;37.412;2022-11-03T13:02:09;99048.75;;;-0.39;71.41
69035;BME280;56091;55.756;37.412;2022-11-03T13:07:10;99048.91;;;-0.19;70.87
69035;BME280;56091;55.756;37.412;2022-11-03T13:12:11;99044.44;;;-0.18;70.40
69035;BME280;56091;55.756;37.412;2022-11-03T13:17:38;99047.41;;;-0.28;70.42
69035;BME280;56091;55.756;37.412;2022-11-03T13:22:39;99045.50;;;-0.56;71.34
69035;BME280;56091;55.756;37.412;2022-11-03T13:27:40;99048.22;;;-0.71;72.14
69035;BME280;56091;55.756;37.412;2022-11-03T13:32:41;99049.44;;;-0.88;72.47
69035;BME280;56091;55.756;37.412;2022-11-03T13:37:42;99047.75;;;-0.74;72.44
69035;BME280;56091;55.756;37.412;2022-11-03T13:42:43;99056.31;;;-0.94;73.04
69035;BME280;56091;55.756;37.412;2022-11-03T13:47:44;99057.75;;;-0.91;72.99
69035;BME280;56091;55.756;37.412;2022-11-03T13:52:46;99068.41;;;-1.06;73.39
69035;BME280;56091;55.756;37.412;2022-11-03T13:57:47;99054.69;;;-1.10;73.76
69035;BME280;56091;55.756;37.412;2022-11-03T14:02:48;99053.13;;;-1.04;73.78
69035;BME280;56091;55.756;37.412;2022-11-03T14:07:50;99056.31;;;-1.09;73.64
69035;BME280;56091;55.756;37.412;2022-11-03T14:12:51;99059.41;;;-0.90;73.32
69035;BME280;56091;55.756;37.412;2022-11-03T14:17:52;99068.44;;;-0.85;72.78
69035;BME280;56091;55.756;37.412;2022-11-03T14:22:53;99063.09;;;-0.70;72.22
69035;BME280;56091;55.756;37.412;2022-11-03T14:27:58;99064.22;;;-0.79;72.31
69035;BME280;56091;55.756;37.412;2022-11-03T14:32:59;99076.97;;;-1.04;72.88
69035;BME280;56091;55.756;37.412;2022-11-03T14:38:00;99040.38;;;-1.15;73.36
69035;BME280;56091;55.756;37.412;2022-11-03T14:43:01;99051.19;;;-0.95;73.46
69035;BME280;56091;55.756;37.412;2022-11-03T14:48:01;99051.63;;;-0.92;72.78
69035;BME280;56091;55.756;37.412;2022-11-03T14:53:05;99058.81;;;-0.71;72.38
69035;BME280;56091;55.756;37.412;2022-11-03T14:58:05;99066.44;;;-0.61;71.60
69035;BME280;56091;55.756;37.412;2022-11-03T15:03:06;99071.59;;;-0.74;71.67
69035;BME280;56091;55.756;37.412;2022-11-03T15:08:07;99067.50;;;-0.77;72.36
69035;BME280;56091;55.756;37.412;2022-11-03T15:13:08;99054.56;;;-0.87;72.23
69035;BME280;56091;55.756;37.412;2022-11-03T15:18:09;99073.34;;;-0.82;71.71
69035;BME280;56091;55.756;37.412;2022-11-03T15:23:11;99068.41;;;-0.48;71.54
69035;BME280;56091;55.756;37.412;2022-11-03T15:28:12;99028.72;;;-0.63;70.20
69035;BME280;56091;55.756;37.412;2022-11-03T15:33:13;99076.44;;;-0.20;69.76
69035;BME280;56091;55.756;37.412;2022-11-03T15:38:20;99078.06;;;-0.19;69.73
69035;BME280;56091;55.756;37.412;2022-11-03T15:43:21;99069.03;;;-0.03;69.29
69035;BME280;56091;55.756;37.412;2022-11-03T15:48:21;99068.91;;;0.05;68.78
69035;BME280;56091;55.756;37.412;2022-11-03T15:53:22;99069.59;;;-0.08;69.14
69035;BME280;56091;55.756;37.412;2022-11-03T15:58:23;99074.59;;;0.02;68.92
69035;BME280;56091;55.756;37.412;2022-11-03T16:03:24;99075.50;;;-0.12;69.68
69035;BME280;56091;55.756;37.412;2022-11-03T16:08:24;99063.00;;;-0.40;70.24
69035;BME280;56091;55.756;37.412;2022-11-03T16:13:25;99067.28;;;-0.39;70.34
69035;BME280;56091;55.756;37.412;2022-11-03T16:18:26;99054.16;;;-0.26;69.83
69035;BME280;56091;55.756;37.412;2022-11-03T16:23:27;99074.78;;;-0.21;69.46
69035;BME280;56091;55.756;37.412;2022-11-03T16:28:35;99072.69;;;-0.69;71.17
69035;BME280;56091;55.756;37.412;2022-11-03T16:33:35;99072.69;;;-0.69;71.68
69035;BME280;56091;55.756;37.412;2022-11-03T16:38:38;99059.75;;;-0.93;72.14
69035;BME280;56091;55.756;37.412;2022-11-03T16:43:39;99064.34;;;-0.87;72.20
69035;BME280;56091;55.756;37.412;2022-11-03T16:48:40;99074.09;;;-0.88;72.31
69035;BME280;56091;55.756;37.412;2022-11-03T16:53:41;99077.81;;;-0.82;72.36
69035;BME280;56091;55.756;37.412;2022-11-03T16:58:41;99079.38;;;-0.73;71.46
69035;BME280;56091;55.756;37.412;2022-11-03T17:03:46;99048.53;;;-0.95;71.79
69035;BME280;56091;55.756;37.412;2022-11-03T17:08:47;99075.44;;;-0.77;71.98
69035;BME280;56091;55.756;37.412;2022-11-03T17:13:48;99076.91;;;-0.74;71.99
69035;BME280;56091;55.756;37.412;2022-11-03T17:18:51;99078.53;;;-0.37;70.99
69035;BME280;56091;55.756;37.412;2022-11-03T17:23:52;99069.19;;;-0.54;70.52
69035;BME280;56091;55.756;37.412;2022-11-03T17:28:53;99070.06;;;-0.84;71.53
69035;BME280;56091;55.756;37.412;2022-11-03T17:33:59;99059.91;;;-0.80;71.27
69035;BME280;56091;55.756;37.412;2022-11-03T17:39:00;99076.25;;;-0.76;71.20
69035;BME280;56091;55.756;37.412;2022-11-03T17:44:01;99076.41;;;-0.63;70.94
69035;BME280;56091;55.756;37.412;2022-11-03T17:49:03;99078.38;;;-0.50;70.58
69035;BME280;56091;55.756;37.412;2022-11-03T17:54:05;99076.00;;;-0.24;69.68
69035;BME280;56091;55.756;37.412;2022-11-03T17:59:12;99080.72;;;-0.41;69.91
69035;BME280;56091;55.756;37.412;2022-11-03T18:04:14;99066.84;;;-0.43;70.43
69035;BME280;56091;55.756;37.412;2022-11-03T18:09:17;99062.53;;;-0.65;70.50
69035;BME280;56091;55.756;37.412;2022-11-03T18:14:19;99060.97;;;-0.60;70.50
69035;BME280;56091;55.756;37.412;2022-11-03T18:19:20;99077.25;;;-0.41;69.96
69035;BME280;56091;55.756;37.412;2022-11-03T18:24:21;99070.81;;;-0.53;69.84
69035;BME280;56091;55.756;37.412;2022-11-03T18:29:22;99071.66;;;-0.53;69.93
69035;BME280;56091;55.756;37.412;2022-11-03T18:34:24;99068.09;;;-0.38;69.50
69035;BME280;56091;55.756;37.412;2022-11-03T18:39:26;99058.47;;;-0.25;68.80
69035;BME280;56091;55.756;37.412;2022-11-03T18:44:28;99051.13;;;-0.44;68.89
69035;BME280;56091;55.756;37.412;2022-11-03T18:49:36;99071.94;;;-0.20;68.68
69035;BME280;56091;55.756;37.412;2022-11-03T18:54:39;99061.97;;;-0.17;68.35
69035;BME280;56091;55.756;37.412;2022-11-03T18:59:43;99073.31;;;-0.02;67.92
69035;BME280;56091;55.756;37.412;2022-11-03T19:04:45;99066.66;;;0.02;67.80
69035;BME280;56091;55.756;37.412;2022-11-03T19:09:46;99065.47;;;0.11;67.80
69035;BME280;56091;55.756;37.412;2022-11-03T19:14:47;99050.81;;;-0.13;67.64
69035;BME280;56091;55.756;37.412;2022-11-03T19:19:49;99058.31;;;-0.38;69.23
69035;BME280;56091;55.756;37.412;2022-11-03T19:24:52;99015.38;;;-0.91;69.85
69035;BME280;56091;55.756;37.412;2022-11-03T19:29:53;99054.66;;;-0.95;71.06
69035;BME280;56091;55.756;37.412;2022-11-03T19:35:39;99052.28;;;-1.05;71.63
69035;BME280;56091;55.756;37.412;2022-11-03T19:40:23;99021.41;;;-1.34;72.25
69035;BME280;56091;55.756;37.412;2022-11-03T19:45:24;99050.41;;;-0.74;71.49
69035;BME280;56091;55.756;37.412;2022-11-03T19:50:28;99041.72;;;-0.68;70.34
69035;BME280;56091;55.756;37.412;2022-11-03T19:55:35;99041.22;;;-0.57;70.33
69035;BME280;56091;55.756;37.412;2022-11-03T20:00:37;99039.00;;;-0.75;70.91
69035;BME280;56091;55.756;37.412;2022-11-03T20:05:38;99034.03;;;-1.00;71.60
69035;BME280;56091;55.756;37.412;2022-11-03T20:10:43;99025.47;;;-1.16;72.10
69035;BME280;56091;55.756;37.412;2022-11-03T20:15:47;99038.75;;;-0.95;72.03
69035;BME280;56091;55.756;37.412;2022-11-03T20:20:48;99046.13;;;-1.12;72.79
69035;BME280;56091;55.756;37.412;2022-11-03T20:25:49;99032.97;;;-0.84;72.10
69035;BME280;56091;55.756;37.412;2022-11-03T20:30:51;99041.47;;;-0.52;71.03
69035;BME280;56091;55.756;37.412;2022-11-03T20:35:55;99036.25;;;-0.45;70.56
69035;BME280;56091;55.756;37.412;2022-11-03T20:41:00;99040.41;;;-0.36;70.44
69035;BME280;56091;55.756;37.412;2022-11-03T20:46:09;99048.91;;;-0.19;69.74
69035;BME280;56091;55.756;37.412;2022-11-03T20:51:17;99037.75;;;-0.14;69.81
69035;BME280;56091;55.756;37.412;2022-11-03T20:56:22;99031.75;;;-0.23;69.63
69035;BME280;56091;55.756;37.412;2022-11-03T21:01:28;99041.72;;;-0.68;71.30
69035;BME280;56091;55.756;37.412;2022-11-03T21:06:32;99034.63;;;-0.83;71.86
69035;BME280;56091;55.756;37.412;2022-11-03T21:11:34;99040.53;;;-1.02;72.23
69035;BME280;56091;55.756;37.412;2022-11-03T21:16:39;99048.09;;;-1.14;72.48
69035;BME280;56091;55.756;37.412;2022-11-03T21:21:59;99041.34;;;-1.02;72.73
69035;BME280;56091;55.756;37.412;2022-11-03T21:27:00;99041.00;;;-0.77;71.76
69035;BME280;56091;55.756;37.412;2022-11-03T21:32:01;99045.63;;;-1.01;72.10
69035;BME280;56091;55.756;37.412;2022-11-03T21:37:02;99043.34;;;-1.04;72.67
69035;BME280;56091;55.756;37.412;2022-11-03T21:42:04;99043.72;;;-1.07;72.54
69035;BME280;56091;55.756;37.412;2022-11-03T21:47:24;99030.03;;;-1.25;73.09
69035;BME280;56091;55.756;37.412;2022-11-03T21:52:26;99026.94;;;-1.14;72.83
69035;BME280;56091;55.756;37.412;2022-11-03T21:57:32;99030.44;;;-1.28;73.09
69035;BME280;56091;55.756;37.412;2022-11-03T22:02:33;99028.41;;;-1.26;73.33
69035;BME280;56091;55.756;37.412;2022-11-03T22:07:34;99026.88;;;-1.21;73.40
69035;BME280;56091;55.756;37.412;2022-11-03T22:12:35;99030.94;;;-1.03;72.69
69035;BME280;56091;55.756;37.412;2022-11-03T22:17:35;99030.75;;;-1.02;72.77
69035;BME280;56091;55.756;37.412;2022-11-03T22:22:36;99024.75;;;-1.25;72.78
69035;BME280;56091;55.756;37.412;2022-11-03T22:27:56;99014.34;;;-1.12;72.86
69035;BME280;56091;55.756;37.412;2022-11-03T22:32:56;99016.28;;;-0.84;71.84
69035;BME280;56091;55.756;37.412;2022-11-03T22:38:15;99013.63;;;-0.63;70.82
69035;BME280;56091;55.756;37.412;2022-11-03T22:43:18;99022.38;;;-0.47;70.29
69035;BME280;56091;55.756;37.412;2022-11-03T22:48:38;99022.50;;;-0.34;69.99
69035;BME280;56091;55.756;37.412;2022-11-03T22:53:45;99029.75;;;-0.43;69.83
69035;BME280;56091;55.756;37.412;2022-11-03T22:59:07;99027.78;;;-0.55;70.19
69035;BME280;56091;55.756;37.412;2022-11-03T23:04:08;99029.28;;;-0.68;70.71
69035;BME280;56091;55.756;37.412;2022-11-03T23:09:09;99020.72;;;-0.70;71.44
69035;BME280;56091;55.756;37.412;2022-11-03T23:14:14;99024.38;;;-0.49;70.38
69035;BME280;56091;55.756;37.412;2022-11-03T23:19:15;99030.19;;;-0.39;69.96
69035;BME280;56091;55.756;37.412;2022-11-03T23:24:34;99036.75;;;-0.35;69.74
69035;BME280;56091;55.756;37.412;2022-11-03T23:29:54;99011.78;;;-0.47;69.35
69035;BME280;56091;55.756;37.412;2022-11-03T23:34:54;99026.41;;;-0.30;69.27
69035;BME280;56091;55.756;37.412;2022-11-03T23:39:55;99040.31;;;-0.21;69.12
69035;BME280;56091;55.756;37.412;2022-11-03T23:44:59;99027.09;;;-1.01;71.25
69035;BME280;56091;55.756;37.412;2022-11-03T23:50:18;99036.47;;;-0.83;71.47
69035;BME280;56091;55.756;37.412;2022-11-03T23:55:21;99036.22;;;-0.67;70.73
